createdAt,value
2018-09-04T00:01:42.646Z,22.73
2018-09-04T00:04:23.580Z,23.23
2018-09-04T00:07:04.801Z,23.17
2018-09-04T00:09:45.625Z,23.23
2018-09-04T00:12:26.716Z,22.47
2018-09-04T00:15:07.567Z,23.60
2018-09-04T00:17:48.295Z,23.97
2018-09-04T00:20:29.085Z,24.20
2018-09-04T00:23:09.488Z,24.33
2018-09-04T00:25:50.362Z,23.73
2018-09-04T00:28:31.477Z,24.57
2018-09-04T00:31:12.721Z,24.80
2018-09-04T00:33:53.972Z,24.20
2018-09-04T00:36:34.372Z,26.07
2018-09-04T00:39:15.097Z,25.50
2018-09-04T00:41:55.421Z,26.07
2018-09-04T00:44:36.212Z,25.57
2018-09-04T00:47:16.714Z,27.53
2018-09-04T00:49:57.842Z,27.47
2018-09-04T00:52:39.478Z,27.60
2018-09-04T00:55:19.875Z,27.73
2018-09-04T00:58:00.584Z,27.57
2018-09-04T01:00:42.288Z,29.27
2018-09-04T01:03:23.234Z,30.90
2018-09-04T01:06:04.995Z,31.37
2018-09-04T01:08:45.350Z,29.13
2018-09-04T01:11:26.166Z,27.10
2018-09-04T01:14:06.961Z,27.53
2018-09-04T01:16:47.834Z,27.43
2018-09-04T01:19:29.120Z,25.93
2018-09-04T01:22:10.018Z,28.70
2018-09-04T01:24:50.659Z,27.70
2018-09-04T01:27:32.060Z,28.43
2018-09-04T01:30:13.113Z,27.30
2018-09-04T01:32:53.688Z,28.60
2018-09-04T01:35:34.318Z,28.83
2018-09-04T01:38:14.813Z,28.60
2018-09-04T01:40:55.395Z,28.73
2018-09-04T01:43:35.965Z,27.83
2018-09-04T01:46:16.676Z,27.83
2018-09-04T01:48:57.429Z,28.07
2018-09-04T01:51:38.266Z,29.13
2018-09-04T01:54:20.125Z,29.07
2018-09-04T01:57:01.200Z,31.43
2018-09-04T01:59:41.987Z,31.63
2018-09-04T02:02:22.345Z,29.53
2018-09-04T02:05:03.297Z,28.00
2018-09-04T02:07:43.777Z,31.00
2018-09-04T02:10:24.962Z,32.40
2018-09-04T02:13:05.789Z,31.87
2018-09-04T02:15:46.701Z,31.07
2018-09-04T02:18:27.287Z,28.83
2018-09-04T02:21:07.747Z,30.50
2018-09-04T02:23:48.117Z,30.83
2018-09-04T02:26:28.656Z,29.60
2018-09-04T02:29:09.244Z,32.33
2018-09-04T02:31:49.985Z,31.70
2018-09-04T02:34:30.749Z,31.23
2018-09-04T02:37:11.674Z,31.67
2018-09-04T02:39:52.757Z,29.27
2018-09-04T02:42:33.546Z,29.00
2018-09-04T02:45:14.635Z,28.77
2018-09-04T02:47:55.332Z,34.93
2018-09-04T02:50:35.892Z,26.43
2018-09-04T02:53:17.345Z,28.83
2018-09-04T02:55:57.811Z,30.20
2018-09-04T02:58:38.724Z,29.57
2018-09-04T03:01:19.488Z,28.30
2018-09-04T03:04:00.032Z,29.17
2018-09-04T03:06:40.571Z,28.87
2018-09-04T03:09:21.189Z,27.93
2018-09-04T03:12:02.156Z,28.63
2018-09-04T03:14:43.074Z,28.10
2018-09-04T03:17:23.974Z,28.17
2018-09-04T03:20:04.540Z,29.33
2018-09-04T03:22:45.352Z,28.33
2018-09-04T03:25:26.164Z,29.70
2018-09-04T03:28:06.512Z,29.07
2018-09-04T03:30:47.534Z,28.50
2018-09-04T03:33:29.060Z,27.30
2018-09-04T03:36:10.261Z,29.97
2018-09-04T03:38:51.057Z,27.33
2018-09-04T03:41:31.420Z,27.83
2018-09-04T03:44:11.848Z,28.30
2018-09-04T03:46:52.213Z,27.77
2018-09-04T03:49:32.600Z,29.77
2018-09-04T03:52:13.533Z,28.90
2018-09-04T03:54:54.138Z,29.47
2018-09-04T03:57:35.011Z,28.93
2018-09-04T04:00:15.428Z,29.43
2018-09-04T04:02:56.860Z,29.83
2018-09-04T04:05:37.438Z,29.97
2018-09-04T04:08:17.877Z,32.53
2018-09-04T04:10:58.608Z,31.20
2018-09-04T04:13:39.149Z,32.67
2018-09-04T04:16:20.285Z,33.83
2018-09-04T04:19:00.656Z,29.57
2018-09-04T04:21:41.069Z,29.53
2018-09-04T04:24:21.634Z,30.03
2018-09-04T04:27:02.505Z,29.77
2018-09-04T04:29:43.303Z,31.13
2018-09-04T04:32:24.592Z,31.07
2018-09-04T04:35:06.056Z,30.40
2018-09-04T04:37:46.601Z,30.43
2018-09-04T04:40:27.512Z,32.70
2018-09-04T04:43:08.946Z,32.13
2018-09-04T04:45:49.767Z,32.23
2018-09-04T04:48:30.596Z,31.40
2018-09-04T04:51:11.104Z,31.63
2018-09-04T04:53:51.678Z,32.60
2018-09-04T04:56:32.645Z,31.33
2018-09-04T04:59:13.465Z,31.87
2018-09-04T05:01:53.852Z,32.33
2018-09-04T05:04:34.465Z,32.57
2018-09-04T05:07:14.982Z,31.73
2018-09-04T05:09:56.892Z,33.97
2018-09-04T05:12:37.657Z,31.50
2018-09-04T05:15:18.471Z,32.70
2018-09-04T05:17:59.083Z,32.33
2018-09-04T05:20:39.793Z,29.97
2018-09-04T05:23:20.618Z,30.60
2018-09-04T05:26:01.097Z,29.73
2018-09-04T05:28:41.691Z,30.87
2018-09-04T05:31:22.860Z,29.80
2018-09-04T05:34:03.695Z,30.53
2018-09-04T05:36:44.272Z,30.23
2018-09-04T05:39:25.172Z,30.00
2018-09-04T05:42:11.620Z,30.27
2018-09-04T05:44:52.473Z,31.10
2018-09-04T05:47:35.376Z,29.10
2018-09-04T05:50:17.128Z,30.87
2018-09-04T05:52:58.245Z,30.43
2018-09-04T05:55:38.929Z,26.33
2018-09-04T05:58:19.801Z,30.03
2018-09-04T06:01:02.296Z,28.37
2018-09-04T06:03:43.152Z,29.73
2018-09-04T06:06:23.667Z,28.67
2018-09-04T06:09:06.215Z,30.53
2018-09-04T06:11:47.129Z,30.70
2018-09-04T06:14:28.013Z,29.57
2018-09-04T06:17:09.080Z,28.13
2018-09-04T06:19:49.557Z,29.77
2018-09-04T06:22:30.729Z,30.00
2018-09-04T06:25:11.492Z,29.40
2018-09-04T06:27:52.429Z,29.73
2018-09-04T06:30:33.437Z,31.33
2018-09-04T06:33:13.972Z,29.80
2018-09-04T06:35:55.223Z,28.40
2018-09-04T06:38:36.125Z,30.17
2018-09-04T06:41:17.887Z,30.13
2018-09-04T06:43:59.124Z,30.10
2018-09-04T06:46:39.602Z,30.10
2018-09-04T06:49:20.745Z,29.27
2018-09-04T06:52:01.197Z,30.13
2018-09-04T06:54:42.149Z,28.67
2018-09-04T06:57:23.942Z,27.63
2018-09-04T07:00:04.953Z,28.63
2018-09-04T07:02:46.173Z,28.70
2018-09-04T07:05:27.085Z,26.90
2018-09-04T07:08:07.525Z,25.73
2018-09-04T07:10:47.904Z,26.20
2018-09-04T07:13:28.633Z,26.93
2018-09-04T07:16:09.318Z,27.27
2018-09-04T07:18:49.864Z,25.97
2018-09-04T07:21:30.942Z,26.90
2018-09-04T07:24:11.789Z,26.47
2018-09-04T07:26:52.655Z,25.53
2018-09-04T07:29:33.496Z,24.73
2018-09-04T07:32:14.797Z,24.67
2018-09-04T07:34:55.375Z,23.93
2018-09-04T07:37:35.884Z,25.50
2018-09-04T07:40:16.753Z,22.17
2018-09-04T07:42:57.730Z,23.10
2018-09-04T07:45:38.495Z,23.67
2018-09-04T07:48:19.593Z,20.83
2018-09-04T07:51:00.380Z,21.77
2018-09-04T07:53:40.907Z,22.43
2018-09-04T07:56:22.212Z,21.57
2018-09-04T07:59:02.924Z,23.33
2018-09-04T08:01:44.030Z,22.83
2018-09-04T08:04:25.287Z,21.53
2018-09-04T08:07:07.046Z,23.13
2018-09-04T08:09:47.638Z,22.60
2018-09-04T08:12:28.394Z,22.23
2018-09-04T08:15:09.540Z,21.10
2018-09-04T08:17:50.042Z,21.67
2018-09-04T08:20:31.171Z,21.60
2018-09-04T08:23:11.772Z,21.20
2018-09-04T08:25:52.871Z,22.00
2018-09-04T08:28:34.119Z,21.87
2018-09-04T08:31:14.958Z,22.13
2018-09-04T08:33:55.507Z,20.97
2018-09-04T08:36:36.498Z,20.53
2018-09-04T08:39:17.197Z,20.93
2018-09-04T08:41:57.624Z,21.23
2018-09-04T08:44:38.199Z,19.43
2018-09-04T08:47:19.454Z,19.17
2018-09-04T08:50:00.381Z,19.40
2018-09-04T08:52:40.757Z,19.67
2018-09-04T08:55:21.952Z,20.57
2018-09-04T08:58:02.573Z,20.93
2018-09-04T09:00:43.317Z,19.93
2018-09-04T09:03:24.525Z,20.87
2018-09-04T09:06:05.638Z,21.33
2018-09-04T09:08:46.694Z,20.97
2018-09-04T09:11:27.204Z,21.40
2018-09-04T09:14:07.554Z,20.37
2018-09-04T09:16:48.620Z,21.93
2018-09-04T09:19:29.282Z,21.33
2018-09-04T09:22:11.031Z,19.60
2018-09-04T09:24:52.211Z,22.07
2018-09-04T09:27:32.685Z,21.93
2018-09-04T09:30:14.377Z,21.57
2018-09-04T09:32:55.191Z,22.10
2018-09-04T09:35:36.233Z,22.33
2018-09-04T09:38:16.708Z,18.60
2018-09-04T09:40:57.304Z,21.00
2018-09-04T09:43:37.857Z,20.07
2018-09-04T09:46:18.989Z,19.83
2018-09-04T09:48:59.442Z,20.43
2018-09-04T09:51:40.009Z,18.30
2018-09-04T09:54:20.504Z,19.63
2018-09-04T09:57:01.712Z,19.93
2018-09-04T09:59:42.719Z,18.97
2018-09-04T10:02:27.449Z,19.80
2018-09-04T10:05:09.369Z,18.40
2018-09-04T10:07:50.740Z,18.03
2018-09-04T10:10:31.588Z,17.10
2018-09-04T10:13:12.376Z,16.47
2018-09-04T10:15:54.101Z,17.40
2018-09-04T10:18:34.632Z,17.97
2018-09-04T10:21:16.333Z,16.53
2018-09-04T10:23:57.339Z,17.27
2018-09-04T10:26:38.368Z,17.33
2018-09-04T10:29:19.712Z,17.57
2018-09-04T10:32:00.445Z,17.03
2018-09-04T10:34:41.113Z,18.63
2018-09-04T10:37:21.945Z,17.73
2018-09-04T10:40:07.955Z,16.80
2018-09-04T10:42:48.807Z,18.37
2018-09-04T10:45:34.776Z,16.50
2018-09-04T10:48:20.149Z,17.70
2018-09-04T10:51:01.388Z,17.43
2018-09-04T10:53:42.052Z,16.70
2018-09-04T10:56:22.851Z,19.07
2018-09-04T10:59:03.419Z,17.23
2018-09-04T11:01:44.133Z,16.03
2018-09-04T11:04:24.868Z,16.80
2018-09-04T11:07:05.625Z,18.90
2018-09-04T11:09:47.218Z,18.27
2018-09-04T11:12:29.128Z,17.87
2018-09-04T11:15:09.728Z,16.67
2018-09-04T11:17:50.205Z,16.13
2018-09-04T11:20:31.217Z,16.43
2018-09-04T11:23:12.097Z,16.50
2018-09-04T11:25:53.361Z,15.60
2018-09-04T11:28:38.260Z,16.10
2018-09-04T11:31:19.025Z,15.20
2018-09-04T11:34:00.000Z,16.10
2018-09-04T11:36:41.249Z,14.23
2018-09-04T11:39:22.130Z,14.30
2018-09-04T11:42:03.040Z,14.70
2018-09-04T11:44:45.161Z,13.97
2018-09-04T11:47:25.562Z,14.67
2018-09-04T11:50:06.234Z,13.97
2018-09-04T11:52:47.104Z,14.13
2018-09-04T11:55:27.948Z,13.93
2018-09-04T11:58:09.881Z,13.83
2018-09-04T12:00:50.482Z,13.83
2018-09-04T12:03:31.428Z,13.30
2018-09-04T12:06:12.333Z,12.70
2018-09-04T12:08:53.178Z,12.23
2018-09-04T12:11:33.845Z,12.67
2018-09-04T12:14:14.411Z,12.10
2018-09-04T12:16:55.214Z,11.90
2018-09-04T12:20:46.569Z,11.00
2018-09-04T12:23:27.592Z,11.67
2018-09-04T12:26:10.654Z,11.10
2018-09-04T12:28:58.326Z,11.30
2018-09-04T12:31:39.256Z,11.90
2018-09-04T12:34:20.241Z,11.73
2018-09-04T12:37:01.115Z,12.57
2018-09-04T12:39:45.668Z,12.63
2018-09-04T12:42:28.152Z,12.53
2018-09-04T12:45:09.311Z,12.47
2018-09-04T12:47:50.891Z,12.03
2018-09-04T12:50:31.884Z,12.47
2018-09-04T12:53:12.753Z,12.77
2018-09-04T12:55:53.761Z,12.30
2018-09-04T12:58:34.617Z,11.80
2018-09-04T13:01:15.009Z,12.13
2018-09-04T13:03:55.971Z,12.30
2018-09-04T13:06:37.596Z,11.77
2018-09-04T13:09:18.084Z,11.83
2018-09-04T13:11:59.733Z,11.70
2018-09-04T13:14:40.973Z,11.70
2018-09-04T13:17:21.607Z,20.23
2018-09-04T13:20:02.839Z,13.97
2018-09-04T13:22:43.407Z,12.50
2018-09-04T13:25:24.148Z,21.53
2018-09-04T13:28:06.105Z,14.70
2018-09-04T13:30:46.688Z,11.60
2018-09-04T13:33:27.448Z,10.43
2018-09-04T13:36:08.249Z,11.17
2018-09-04T13:38:50.280Z,11.43
2018-09-04T13:41:33.572Z,10.90
2018-09-04T13:44:14.786Z,9.60
2018-09-04T13:46:55.689Z,10.97
2018-09-04T13:49:37.011Z,11.47
2018-09-04T13:52:17.941Z,10.80
2018-09-04T13:54:58.468Z,11.03
2018-09-04T13:57:39.033Z,11.77
2018-09-04T14:00:20.070Z,11.27
2018-09-04T14:03:00.953Z,12.00
2018-09-04T14:05:42.610Z,10.57
2018-09-04T14:08:23.582Z,10.80
2018-09-04T14:11:04.116Z,10.13
2018-09-04T14:13:44.670Z,10.17
2018-09-04T14:16:26.641Z,9.80
2018-09-04T14:19:07.270Z,9.87
2018-09-04T14:21:48.505Z,10.10
2018-09-04T14:24:28.890Z,10.33
2018-09-04T14:27:09.385Z,10.60
2018-09-04T14:29:53.965Z,10.07
2018-09-04T14:32:30.460Z,10.63
2018-09-04T14:35:11.063Z,11.70
2018-09-04T14:37:51.527Z,10.80
2018-09-04T14:40:28.769Z,10.57
2018-09-04T14:43:06.338Z,11.07
2018-09-04T14:45:43.327Z,10.90
2018-09-04T14:48:20.021Z,10.30
2018-09-04T14:50:56.954Z,10.53
2018-09-04T14:53:34.142Z,11.30
2018-09-04T14:56:10.908Z,10.47
2018-09-04T14:58:48.717Z,10.53
2018-09-04T15:01:27.213Z,11.40
2018-09-04T15:04:04.048Z,10.37
2018-09-04T15:06:40.909Z,11.80
2018-09-04T15:09:18.584Z,10.27
2018-09-04T15:11:56.381Z,10.87
2018-09-04T15:14:33.550Z,11.23
2018-09-04T15:17:10.527Z,9.70
2018-09-04T15:19:48.273Z,9.90
2018-09-04T15:22:25.225Z,10.13
2018-09-04T15:25:01.569Z,9.67
2018-09-04T15:27:40.081Z,9.63
2018-09-04T15:30:18.086Z,9.73
2018-09-04T15:32:56.172Z,10.37
2018-09-04T15:35:33.665Z,10.90
2018-09-04T15:38:10.876Z,10.27
2018-09-04T15:40:50.271Z,10.80
2018-09-04T15:43:27.145Z,9.90
2018-09-04T15:46:05.229Z,11.00
2018-09-04T15:48:42.861Z,10.10
2018-09-04T15:51:20.193Z,10.33
2018-09-04T15:53:56.544Z,10.53
2018-09-04T15:56:33.754Z,11.17
2018-09-04T15:59:10.527Z,11.73
2018-09-04T16:01:48.406Z,10.70
2018-09-04T16:04:24.919Z,11.20
2018-09-04T16:07:02.496Z,10.20
2018-09-04T16:09:39.961Z,10.40
2018-09-04T16:12:17.310Z,10.30
2018-09-04T16:14:54.796Z,9.83
2018-09-04T16:17:32.824Z,10.30
2018-09-04T16:20:11.160Z,9.80
2018-09-04T16:22:48.703Z,10.20
2018-09-04T16:25:25.322Z,10.03
2018-09-04T16:28:01.685Z,10.50
2018-09-04T16:30:37.889Z,10.57
2018-09-04T16:33:15.163Z,10.40
2018-09-04T16:35:51.689Z,10.93
2018-09-04T16:38:28.037Z,10.10
2018-09-04T16:41:04.685Z,10.17
2018-09-04T16:43:41.382Z,10.73
2018-09-04T16:46:18.448Z,10.30
2018-09-04T16:48:56.814Z,10.73
2018-09-04T16:51:33.392Z,11.07
2018-09-04T16:54:10.556Z,12.27
2018-09-04T16:56:47.514Z,11.90
2018-09-04T16:59:23.978Z,10.90
2018-09-04T17:02:00.384Z,10.70
2018-09-04T17:04:37.175Z,11.23
2018-09-04T17:07:14.093Z,10.90
2018-09-04T17:09:51.955Z,11.27
2018-09-04T17:12:29.329Z,10.13
2018-09-04T17:15:08.351Z,10.67
2018-09-04T17:17:46.942Z,11.93
2018-09-04T17:20:24.557Z,11.63
2018-09-04T17:23:01.592Z,10.90
2018-09-04T17:25:39.532Z,10.80
2018-09-04T17:28:18.480Z,10.93
2018-09-04T17:30:55.708Z,10.97
2018-09-04T17:33:33.117Z,9.47
2018-09-04T17:36:12.022Z,10.57
2018-09-04T17:38:49.761Z,10.07
2018-09-04T17:41:27.337Z,9.73
2018-09-04T17:44:05.019Z,9.60
2018-09-04T17:46:41.390Z,10.37
2018-09-04T17:49:18.509Z,11.47
2018-09-04T17:51:56.818Z,10.93
2018-09-04T17:54:35.468Z,11.37
2018-09-04T17:57:13.282Z,11.60
2018-09-04T17:59:50.965Z,11.07
2018-09-04T18:02:28.453Z,11.17
2018-09-04T18:05:05.004Z,11.97
2018-09-04T18:07:42.172Z,11.27
2018-09-04T18:10:19.616Z,11.67
2018-09-04T18:12:56.360Z,11.40
2018-09-04T18:15:34.490Z,11.50
2018-09-04T18:18:10.997Z,13.20
2018-09-04T18:20:49.169Z,12.80
2018-09-04T18:23:27.884Z,13.03
2018-09-04T18:26:05.660Z,13.13
2018-09-04T18:28:43.217Z,12.13
2018-09-04T18:31:21.434Z,13.30
2018-09-04T18:33:58.571Z,13.90
2018-09-04T18:36:34.628Z,12.67
2018-09-04T18:39:12.224Z,13.87
2018-09-04T18:41:48.589Z,12.63
2018-09-04T18:44:26.202Z,14.10
2018-09-04T18:47:05.364Z,14.30
2018-09-04T18:49:42.186Z,14.03
2018-09-04T18:52:20.183Z,14.67
2018-09-04T18:54:56.626Z,13.87
2018-09-04T18:57:33.504Z,14.43
2018-09-04T19:00:09.898Z,14.53
2018-09-04T19:02:48.276Z,14.63
2018-09-04T19:05:24.788Z,15.77
2018-09-04T19:08:01.138Z,14.30
2018-09-04T19:10:38.633Z,15.17
2018-09-04T19:13:15.276Z,14.20
2018-09-04T19:15:51.877Z,14.60
2018-09-04T19:18:27.732Z,14.87
2018-09-04T19:21:04.226Z,15.50
2018-09-04T19:23:40.439Z,15.27
2018-09-04T19:26:17.038Z,15.77
2018-09-04T19:29:34.124Z,14.90
2018-09-04T19:32:10.120Z,14.50
2018-09-04T19:34:45.986Z,15.27
2018-09-04T19:37:24.337Z,15.03
2018-09-04T19:40:00.777Z,15.70
2018-09-04T19:42:37.677Z,16.33
2018-09-04T19:45:14.228Z,15.43
2018-09-04T19:47:50.449Z,16.10
2018-09-04T19:50:26.653Z,17.10
2018-09-04T19:53:04.561Z,15.87
2018-09-04T19:55:41.333Z,16.87
2018-09-04T19:58:18.206Z,15.47
2018-09-04T20:00:55.907Z,16.13
2018-09-04T20:03:32.516Z,15.00
2018-09-04T20:06:09.522Z,15.97
2018-09-04T20:08:46.303Z,15.10
2018-09-04T20:11:23.146Z,15.10
2018-09-04T20:13:59.763Z,15.00
2018-09-04T20:16:35.644Z,15.63
2018-09-04T20:19:11.426Z,14.77
2018-09-04T20:21:48.378Z,14.50
2018-09-04T20:24:24.261Z,15.23
2018-09-04T20:27:01.229Z,14.07
2018-09-04T20:29:39.119Z,14.83
2018-09-04T20:32:14.792Z,15.57
2018-09-04T20:34:51.134Z,15.00
2018-09-04T20:37:27.663Z,15.90
2018-09-04T20:40:04.301Z,16.03
2018-09-04T20:42:41.482Z,15.43
2018-09-04T20:45:19.676Z,15.07
2018-09-04T20:47:55.683Z,14.97
2018-09-04T20:50:31.702Z,14.90
2018-09-04T20:53:07.999Z,15.53
2018-09-04T20:55:44.341Z,15.37
2018-09-04T20:58:37.081Z,14.97
2018-09-04T21:01:30.887Z,15.57
2018-09-04T21:04:23.949Z,14.93
2018-09-04T21:06:58.427Z,15.57
2018-09-04T21:09:42.526Z,15.97
2018-09-04T21:12:19.488Z,17.07
2018-09-04T21:14:54.978Z,16.33
2018-09-04T21:17:30.677Z,17.20
2018-09-04T21:20:07.677Z,17.50
2018-09-04T21:22:44.101Z,17.50
2018-09-04T21:25:21.053Z,17.67
2018-09-04T21:27:57.106Z,16.77
2018-09-04T21:30:33.957Z,17.53
2018-09-04T21:33:12.463Z,15.77
2018-09-04T21:35:48.628Z,16.50
2018-09-04T21:38:24.930Z,17.13
2018-09-04T21:41:01.881Z,17.50
2018-09-04T21:43:38.246Z,17.03
2018-09-04T21:46:14.702Z,16.27
2018-09-04T21:48:51.187Z,16.10
2018-09-04T21:51:27.300Z,15.33
2018-09-04T21:54:03.892Z,14.67
2018-09-04T21:56:40.062Z,16.03
2018-09-04T21:59:17.238Z,15.57
2018-09-04T22:01:53.711Z,15.30
2018-09-04T22:04:29.263Z,16.23
2018-09-04T22:07:05.738Z,15.10
2018-09-04T22:09:42.809Z,15.00
2018-09-04T22:12:19.133Z,14.17
2018-09-04T22:14:55.731Z,14.83
2018-09-04T22:17:32.160Z,14.83
2018-09-04T22:20:08.501Z,14.43
2018-09-04T22:22:45.173Z,14.27
2018-09-04T22:25:21.522Z,13.77
2018-09-04T22:27:58.207Z,14.97
2018-09-04T22:30:34.641Z,14.50
2018-09-04T22:33:11.334Z,14.83
2018-09-04T22:35:47.253Z,13.87
2018-09-04T22:38:25.088Z,14.97
2018-09-04T22:41:01.258Z,14.77
2018-09-04T22:43:37.992Z,14.60
2018-09-04T22:46:15.064Z,13.13
2018-09-04T22:48:52.202Z,13.90
2018-09-04T22:51:36.546Z,14.20
2018-09-04T22:54:12.916Z,13.53
2018-09-04T22:56:49.276Z,14.50
2018-09-04T22:59:26.405Z,13.40
2018-09-04T23:02:03.319Z,15.10
2018-09-04T23:04:39.607Z,14.90
2018-09-04T23:07:16.010Z,15.10
2018-09-04T23:09:52.225Z,13.63
2018-09-04T23:12:28.370Z,14.57
2018-09-04T23:15:04.898Z,15.00
2018-09-04T23:17:41.266Z,14.83
2018-09-04T23:20:17.408Z,15.23
2018-09-04T23:22:54.122Z,15.63
2018-09-04T23:25:30.568Z,15.07
2018-09-04T23:28:06.816Z,15.00
2018-09-04T23:30:43.256Z,15.13
2018-09-04T23:33:20.785Z,15.57
2018-09-04T23:35:57.386Z,16.07
2018-09-04T23:38:33.617Z,15.17
2018-09-04T23:41:10.223Z,15.97
2018-09-04T23:43:47.747Z,16.07
2018-09-04T23:46:24.564Z,15.33
2018-09-04T23:49:01.648Z,16.87
2018-09-04T23:51:38.447Z,16.03
2018-09-04T23:54:14.236Z,16.63
2018-09-04T23:56:50.055Z,15.87
2018-09-04T23:59:26.233Z,16.17
